sensor_id;sensor_type;location;lat;lon;timestamp;pressure;altitude;pressure_sealevel;temperature;humidity
39443;BME280;25147;52.142;9.960;2023-06-19T00:00:30;100079.22;;;19.29;67.94
39443;BME280;25147;52.142;9.960;2023-06-19T00:02:59;100065.84;;;19.16;67.97
39443;BME280;25147;52.142;9.960;2023-06-19T00:05:42;100175.97;;;19.71;68.12
39443;BME280;25147;52.142;9.960;2023-06-19T00:08:15;100150.25;;;19.71;69.46
39443;BME280;25147;52.142;9.960;2023-06-19T00:11:07;100154.72;;;19.71;69.03
39443;BME280;25147;52.142;9.960;2023-06-19T00:17:04;100092.00;;;19.38;69.12
39443;BME280;25147;52.142;9.960;2023-06-19T00:19:41;100062.06;;;19.20;68.33
39443;BME280;25147;52.142;9.960;2023-06-19T00:22:09;100141.25;;;19.74;67.89
39443;BME280;25147;52.142;9.960;2023-06-19T00:24:37;99982.88;;;18.82;68.04
39443;BME280;25147;52.142;9.960;2023-06-19T00:27:07;99902.25;;;18.22;69.15
39443;BME280;25147;52.142;9.960;2023-06-19T00:29:39;99991.97;;;18.76;68.89
39443;BME280;25147;52.142;9.960;2023-06-19T00:32:09;99883.72;;;18.22;68.97
39443;BME280;25147;52.142;9.960;2023-06-19T00:34:36;100059.97;;;19.25;69.29
39443;BME280;25147;52.142;9.960;2023-06-19T00:37:10;100114.88;;;19.71;69.17
39443;BME280;25147;52.142;9.960;2023-06-19T00:39:44;99933.16;;;18.54;69.63
39443;BME280;25147;52.142;9.960;2023-06-19T00:42:11;100121.38;;;19.65;70.03
39443;BME280;25147;52.142;9.960;2023-06-19T00:44:41;99870.63;;;18.19;70.46
39443;BME280;25147;52.142;9.960;2023-06-19T00:47:10;99921.38;;;18.43;70.91
39443;BME280;25147;52.142;9.960;2023-06-19T00:49:37;99985.84;;;18.92;70.69
39443;BME280;25147;52.142;9.960;2023-06-19T00:52:07;100036.63;;;19.16;69.89
39443;BME280;25147;52.142;9.960;2023-06-19T00:54:46;100108.19;;;19.63;70.04
39443;BME280;25147;52.142;9.960;2023-06-19T00:57:13;99879.19;;;18.24;69.94
39443;BME280;25147;52.142;9.960;2023-06-19T00:59:41;100045.50;;;19.31;69.31
39443;BME280;25147;52.142;9.960;2023-06-19T01:02:12;100104.94;;;19.58;68.37
39443;BME280;25147;52.142;9.960;2023-06-19T01:04:40;99914.88;;;18.49;67.55
39443;BME280;25147;52.142;9.960;2023-06-19T01:07:09;100105.13;;;19.55;67.22
39443;BME280;25147;52.142;9.960;2023-06-19T01:09:44;99994.66;;;18.92;66.76
39443;BME280;25147;52.142;9.960;2023-06-19T01:12:16;100114.03;;;19.54;66.68
39443;BME280;25147;52.142;9.960;2023-06-19T01:15:02;99911.19;;;18.52;66.32
39443;BME280;25147;52.142;9.960;2023-06-19T01:17:35;99917.44;;;18.51;66.27
39443;BME280;25147;52.142;9.960;2023-06-19T01:20:06;100080.53;;;19.52;66.08
39443;BME280;25147;52.142;9.960;2023-06-19T01:22:39;99809.75;;;17.88;66.02
39443;BME280;25147;52.142;9.960;2023-06-19T01:25:09;100073.63;;;19.49;65.89
39443;BME280;25147;52.142;9.960;2023-06-19T01:27:41;100100.53;;;19.43;65.94
39443;BME280;25147;52.142;9.960;2023-06-19T01:30:12;99750.13;;;17.49;66.29
39443;BME280;25147;52.142;9.960;2023-06-19T01:32:46;99965.72;;;18.72;66.08
39443;BME280;25147;52.142;9.960;2023-06-19T01:35:19;100092.91;;;19.37;66.04
39443;BME280;25147;52.142;9.960;2023-06-19T01:37:52;99960.09;;;18.62;66.26
39443;BME280;25147;52.142;9.960;2023-06-19T01:40:25;99848.28;;;17.93;66.65
39443;BME280;25147;52.142;9.960;2023-06-19T01:42:59;99912.84;;;18.22;67.83
39443;BME280;25147;52.142;9.960;2023-06-19T01:45:28;99918.50;;;18.32;68.28
39443;BME280;25147;52.142;9.960;2023-06-19T01:47:55;99913.53;;;18.10;67.37
39443;BME280;25147;52.142;9.960;2023-06-19T01:50:32;100009.19;;;18.69;67.20
39443;BME280;25147;52.142;9.960;2023-06-19T01:53:04;99975.28;;;18.44;67.72
39443;BME280;25147;52.142;9.960;2023-06-19T01:55:36;99975.69;;;18.36;67.36
39443;BME280;25147;52.142;9.960;2023-06-19T01:58:06;99888.66;;;17.81;68.25
39443;BME280;25147;52.142;9.960;2023-06-19T02:00:38;99963.81;;;18.12;67.61
39443;BME280;25147;52.142;9.960;2023-06-19T02:03:13;100095.72;;;18.88;67.46
39443;BME280;25147;52.142;9.960;2023-06-19T02:05:59;100009.88;;;18.41;68.09
39443;BME280;25147;52.142;9.960;2023-06-19T02:11:15;100092.09;;;18.89;69.01
39443;BME280;25147;52.142;9.960;2023-06-19T02:13:52;100071.06;;;18.86;68.72
39443;BME280;25147;52.142;9.960;2023-06-19T02:16:32;99917.47;;;17.87;68.69
39443;BME280;25147;52.142;9.960;2023-06-19T02:19:00;100025.09;;;18.53;68.66
39443;BME280;25147;52.142;9.960;2023-06-19T02:21:41;100014.16;;;18.43;68.37
39443;BME280;25147;52.142;9.960;2023-06-19T02:24:09;100050.25;;;18.62;69.05
39443;BME280;25147;52.142;9.960;2023-06-19T02:26:38;99829.47;;;17.33;68.79
39443;BME280;25147;52.142;9.960;2023-06-19T02:29:05;100095.38;;;18.94;69.08
39443;BME280;25147;52.142;9.960;2023-06-19T02:31:33;100059.28;;;18.91;69.06
39443;BME280;25147;52.142;9.960;2023-06-19T02:33:59;100004.25;;;18.47;69.46
39443;BME280;25147;52.142;9.960;2023-06-19T02:36:30;100048.13;;;18.84;69.65
39443;BME280;25147;52.142;9.960;2023-06-19T02:39:08;99971.94;;;18.40;69.87
39443;BME280;25147;52.142;9.960;2023-06-19T02:41:40;100062.69;;;18.93;69.79
39443;BME280;25147;52.142;9.960;2023-06-19T02:44:15;100063.13;;;19.01;69.32
39443;BME280;25147;52.142;9.960;2023-06-19T02:46:52;99830.03;;;17.71;67.71
39443;BME280;25147;52.142;9.960;2023-06-19T02:49:24;100049.84;;;19.01;67.12
39443;BME280;25147;52.142;9.960;2023-06-19T02:52:19;99951.72;;;18.54;65.48
39443;BME280;25147;52.142;9.960;2023-06-19T02:55:36;99747.72;;;17.28;63.94
39443;BME280;25147;52.142;9.960;2023-06-19T03:06:00;99896.78;;;18.72;60.27
39443;BME280;25147;52.142;9.960;2023-06-19T03:08:40;100031.13;;;19.49;59.62
39443;BME280;25147;52.142;9.960;2023-06-19T03:11:08;99924.47;;;18.98;59.17
39443;BME280;25147;52.142;9.960;2023-06-19T03:13:44;100017.69;;;19.52;58.83
39443;BME280;25147;52.142;9.960;2023-06-19T03:16:21;100052.00;;;19.71;58.35
39443;BME280;25147;52.142;9.960;2023-06-19T03:18:48;99873.13;;;18.69;58.22
39443;BME280;25147;52.142;9.960;2023-06-19T03:21:22;100043.84;;;19.74;58.04
39443;BME280;25147;52.142;9.960;2023-06-19T03:23:51;100045.38;;;19.78;57.80
39443;BME280;25147;52.142;9.960;2023-06-19T03:26:26;100070.59;;;19.86;57.73
39443;BME280;25147;52.142;9.960;2023-06-19T03:28:57;100028.97;;;19.56;57.73
39443;BME280;25147;52.142;9.960;2023-06-19T03:31:31;100057.03;;;19.90;57.43
39443;BME280;25147;52.142;9.960;2023-06-19T03:34:40;99947.38;;;19.29;57.37
39443;BME280;25147;52.142;9.960;2023-06-19T03:37:30;99799.91;;;18.36;56.74
39443;BME280;25147;52.142;9.960;2023-06-19T03:39:58;99901.44;;;18.98;56.77
39443;BME280;25147;52.142;9.960;2023-06-19T03:42:31;100055.44;;;20.02;56.54
39443;BME280;25147;52.142;9.960;2023-06-19T03:45:00;100055.53;;;20.00;56.38
39443;BME280;25147;52.142;9.960;2023-06-19T03:47:41;99908.66;;;19.11;56.00
39443;BME280;25147;52.142;9.960;2023-06-19T03:50:31;99911.06;;;19.15;55.52
39443;BME280;25147;52.142;9.960;2023-06-19T03:53:00;99888.78;;;19.18;55.31
39443;BME280;25147;52.142;9.960;2023-06-19T03:55:26;99886.81;;;19.21;55.03
39443;BME280;25147;52.142;9.960;2023-06-19T03:57:56;99883.03;;;19.26;54.34
39443;BME280;25147;52.142;9.960;2023-06-19T04:00:22;99968.34;;;19.78;54.35
39443;BME280;25147;52.142;9.960;2023-06-19T04:02:53;99937.47;;;19.76;53.36
39443;BME280;25147;52.142;9.960;2023-06-19T04:05:21;100027.03;;;20.31;53.34
39443;BME280;25147;52.142;9.960;2023-06-19T04:07:48;100052.09;;;20.70;52.99
39443;BME280;25147;52.142;9.960;2023-06-19T04:10:17;99960.81;;;20.14;53.09
39443;BME280;25147;52.142;9.960;2023-06-19T04:12:44;99973.75;;;20.33;52.61
39443;BME280;25147;52.142;9.960;2023-06-19T04:15:13;99909.75;;;19.94;52.39
39443;BME280;25147;52.142;9.960;2023-06-19T04:17:40;99958.06;;;20.15;52.37
39443;BME280;25147;52.142;9.960;2023-06-19T04:20:07;99964.19;;;20.30;52.19
39443;BME280;25147;52.142;9.960;2023-06-19T04:22:36;100073.13;;;20.88;52.84
39443;BME280;25147;52.142;9.960;2023-06-19T04:25:04;99905.59;;;19.90;52.28
39443;BME280;25147;52.142;9.960;2023-06-19T04:27:33;100066.88;;;20.89;53.29
39443;BME280;25147;52.142;9.960;2023-06-19T04:30:00;100082.09;;;20.87;53.50
39443;BME280;25147;52.142;9.960;2023-06-19T04:32:27;99916.97;;;19.92;53.38
39443;BME280;25147;52.142;9.960;2023-06-19T04:34:57;99923.34;;;19.90;53.62
39443;BME280;25147;52.142;9.960;2023-06-19T04:37:24;100064.03;;;20.77;53.78
39443;BME280;25147;52.142;9.960;2023-06-19T04:39:54;99963.63;;;20.11;53.20
39443;BME280;25147;52.142;9.960;2023-06-19T04:42:22;99813.06;;;19.27;52.85
39443;BME280;25147;52.142;9.960;2023-06-19T04:44:52;100096.72;;;20.79;53.04
39443;BME280;25147;52.142;9.960;2023-06-19T04:47:22;99988.81;;;20.19;53.28
39443;BME280;25147;52.142;9.960;2023-06-19T04:49:49;99794.94;;;19.04;53.32
39443;BME280;25147;52.142;9.960;2023-06-19T04:52:16;99947.34;;;19.88;53.15
39443;BME280;25147;52.142;9.960;2023-06-19T04:55:08;100007.69;;;20.15;53.22
39443;BME280;25147;52.142;9.960;2023-06-19T04:57:35;100083.63;;;20.76;53.10
39443;BME280;25147;52.142;9.960;2023-06-19T05:00:05;99943.84;;;19.88;53.54
39443;BME280;25147;52.142;9.960;2023-06-19T05:02:35;100061.22;;;20.52;53.67
39443;BME280;25147;52.142;9.960;2023-06-19T05:05:03;100093.31;;;20.77;53.36
39443;BME280;25147;52.142;9.960;2023-06-19T05:07:32;99909.00;;;19.63;53.70
39443;BME280;25147;52.142;9.960;2023-06-19T05:10:02;100091.59;;;20.76;53.80
39443;BME280;25147;52.142;9.960;2023-06-19T05:12:34;99980.47;;;20.11;54.16
39443;BME280;25147;52.142;9.960;2023-06-19T05:15:01;99881.13;;;19.42;54.36
39443;BME280;25147;52.142;9.960;2023-06-19T05:17:30;100049.19;;;20.32;54.54
39443;BME280;25147;52.142;9.960;2023-06-19T05:19:57;99805.66;;;19.03;55.04
39443;BME280;25147;52.142;9.960;2023-06-19T05:22:24;100104.53;;;20.68;56.70
39443;BME280;25147;52.142;9.960;2023-06-19T05:24:52;99933.56;;;19.67;56.68
39443;BME280;25147;52.142;9.960;2023-06-19T05:27:19;100045.63;;;20.31;56.38
39443;BME280;25147;52.142;9.960;2023-06-19T05:29:46;100051.34;;;20.11;55.94
39443;BME280;25147;52.142;9.960;2023-06-19T05:32:12;99981.31;;;19.83;56.06
39443;BME280;25147;52.142;9.960;2023-06-19T05:34:41;100105.97;;;20.59;56.18
39443;BME280;25147;52.142;9.960;2023-06-19T05:37:08;100049.19;;;20.17;56.27
39443;BME280;25147;52.142;9.960;2023-06-19T05:39:37;100082.97;;;20.44;56.94
39443;BME280;25147;52.142;9.960;2023-06-19T05:42:05;100036.91;;;20.15;56.77
39443;BME280;25147;52.142;9.960;2023-06-19T05:44:32;100117.19;;;20.64;57.21
39443;BME280;25147;52.142;9.960;2023-06-19T05:46:59;100119.44;;;20.71;56.92
39443;BME280;25147;52.142;9.960;2023-06-19T05:49:26;99964.38;;;19.55;56.89
39443;BME280;25147;52.142;9.960;2023-06-19T05:51:54;100052.03;;;20.14;57.01
39443;BME280;25147;52.142;9.960;2023-06-19T05:54:24;100124.84;;;20.69;56.77
39443;BME280;25147;52.142;9.960;2023-06-19T05:56:51;100132.53;;;20.74;57.07
39443;BME280;25147;52.142;9.960;2023-06-19T05:59:18;100031.34;;;20.05;56.68
39443;BME280;25147;52.142;9.960;2023-06-19T06:01:44;100106.22;;;20.55;57.28
39443;BME280;25147;52.142;9.960;2023-06-19T06:04:11;100105.69;;;20.64;57.47
39443;BME280;25147;52.142;9.960;2023-06-19T06:06:39;100131.66;;;20.88;57.83
39443;BME280;25147;52.142;9.960;2023-06-19T06:09:07;100075.47;;;20.65;57.92
39443;BME280;25147;52.142;9.960;2023-06-19T06:11:36;100089.03;;;20.75;57.81
39443;BME280;25147;52.142;9.960;2023-06-19T06:14:03;100037.56;;;20.47;57.66
39443;BME280;25147;52.142;9.960;2023-06-19T06:16:30;100145.03;;;21.15;58.37
39443;BME280;25147;52.142;9.960;2023-06-19T06:18:56;100053.13;;;20.68;58.80
39443;BME280;25147;52.142;9.960;2023-06-19T06:21:24;99913.19;;;19.82;59.19
39443;BME280;25147;52.142;9.960;2023-06-19T06:23:53;99887.31;;;19.71;59.35
39443;BME280;25147;52.142;9.960;2023-06-19T06:26:22;100140.47;;;21.17;59.83
39443;BME280;25147;52.142;9.960;2023-06-19T06:28:52;100141.50;;;21.14;61.25
39443;BME280;25147;52.142;9.960;2023-06-19T06:31:19;100068.91;;;20.56;63.06
39443;BME280;25147;52.142;9.960;2023-06-19T06:33:48;100067.38;;;20.52;65.14
39443;BME280;25147;52.142;9.960;2023-06-19T06:36:22;100161.78;;;21.02;66.55
39443;BME280;25147;52.142;9.960;2023-06-19T06:38:53;99883.56;;;19.16;67.33
39443;BME280;25147;52.142;9.960;2023-06-19T06:41:24;100104.53;;;20.54;68.04
39443;BME280;25147;52.142;9.960;2023-06-19T06:43:54;100139.97;;;20.69;68.74
39443;BME280;25147;52.142;9.960;2023-06-19T06:46:21;100157.25;;;20.76;68.77
39443;BME280;25147;52.142;9.960;2023-06-19T06:48:56;99880.91;;;19.02;69.25
39443;BME280;25147;52.142;9.960;2023-06-19T06:51:24;99992.00;;;19.67;69.35
39443;BME280;25147;52.142;9.960;2023-06-19T06:53:56;99983.94;;;19.54;69.80
39443;BME280;25147;52.142;9.960;2023-06-19T06:57:08;99917.59;;;19.10;69.76
39443;BME280;25147;52.142;9.960;2023-06-19T07:00:21;100163.44;;;20.62;69.83
39443;BME280;25147;52.142;9.960;2023-06-19T07:03:40;99889.09;;;18.83;69.39
39443;BME280;25147;52.142;9.960;2023-06-19T07:08:42;99997.78;;;19.59;69.25
39443;BME280;25147;52.142;9.960;2023-06-19T07:10:01;100130.38;;;20.37;68.33
39443;BME280;25147;52.142;9.960;2023-06-19T07:15:40;99948.91;;;19.48;68.47
39443;BME280;25147;52.142;9.960;2023-06-19T07:18:10;100081.47;;;20.26;67.77
39443;BME280;25147;52.142;9.960;2023-06-19T07:24:53;99944.09;;;19.54;65.48
39443;BME280;25147;52.142;9.960;2023-06-19T07:30:23;100193.69;;;21.31;64.89
39443;BME280;25147;52.142;9.960;2023-06-19T07:32:52;100193.75;;;21.44;64.27
39443;BME280;25147;52.142;9.960;2023-06-19T07:35:19;100036.97;;;20.56;63.67
39443;BME280;25147;52.142;9.960;2023-06-19T07:37:48;100195.97;;;21.64;63.21
39443;BME280;25147;52.142;9.960;2023-06-19T07:40:19;100188.13;;;21.76;62.80
39443;BME280;25147;52.142;9.960;2023-06-19T07:43:11;100081.00;;;21.16;61.91
39443;BME280;25147;52.142;9.960;2023-06-19T07:45:38;100163.50;;;21.85;61.33
39443;BME280;25147;52.142;9.960;2023-06-19T07:48:13;100181.25;;;22.12;60.68
39443;BME280;25147;52.142;9.960;2023-06-19T07:51:03;100189.19;;;22.26;60.18
39443;BME280;25147;52.142;9.960;2023-06-19T07:53:32;100101.13;;;21.75;60.05
39443;BME280;25147;52.142;9.960;2023-06-19T07:56:41;100187.16;;;22.42;59.57
39443;BME280;25147;52.142;9.960;2023-06-19T08:03:07;99935.66;;;21.14;58.26
39443;BME280;25147;52.142;9.960;2023-06-19T08:09:02;100053.28;;;21.99;55.46
39443;BME280;25147;52.142;9.960;2023-06-19T08:11:58;100081.66;;;22.38;55.09
39443;BME280;25147;52.142;9.960;2023-06-19T08:14:27;100127.19;;;22.61;53.96
39443;BME280;25147;52.142;9.960;2023-06-19T08:17:08;100096.56;;;22.54;54.11
39443;BME280;25147;52.142;9.960;2023-06-19T08:19:41;99967.38;;;21.70;53.43
39443;BME280;25147;52.142;9.960;2023-06-19T08:22:27;100180.91;;;23.19;53.42
39443;BME280;25147;52.142;9.960;2023-06-19T08:24:59;100033.03;;;22.35;54.10
39443;BME280;25147;52.142;9.960;2023-06-19T08:27:26;100100.16;;;22.78;53.54
39443;BME280;25147;52.142;9.960;2023-06-19T08:30:06;99963.28;;;21.90;53.70
39443;BME280;25147;52.142;9.960;2023-06-19T08:32:43;100034.81;;;22.47;53.79
39443;BME280;25147;52.142;9.960;2023-06-19T08:35:14;100079.03;;;22.62;54.26
39443;BME280;25147;52.142;9.960;2023-06-19T08:37:52;100025.63;;;22.38;53.88
39443;BME280;25147;52.142;9.960;2023-06-19T08:40:52;100195.91;;;23.57;54.30
39443;BME280;25147;52.142;9.960;2023-06-19T08:43:36;99924.88;;;22.05;54.16
39443;BME280;25147;52.142;9.960;2023-06-19T08:46:10;100164.47;;;23.60;54.26
39443;BME280;25147;52.142;9.960;2023-06-19T08:48:40;100193.84;;;23.73;55.34
39443;BME280;25147;52.142;9.960;2023-06-19T08:51:07;100095.09;;;23.23;55.29
39443;BME280;25147;52.142;9.960;2023-06-19T08:53:47;99959.69;;;22.40;55.01
39443;BME280;25147;52.142;9.960;2023-06-19T08:57:08;99935.84;;;22.26;55.68
39443;BME280;25147;52.142;9.960;2023-06-19T09:03:01;100122.81;;;23.58;55.90
39443;BME280;25147;52.142;9.960;2023-06-19T09:05:31;100100.34;;;23.60;56.34
39443;BME280;25147;52.142;9.960;2023-06-19T09:08:01;100188.25;;;24.12;56.22
39443;BME280;25147;52.142;9.960;2023-06-19T09:10:33;100003.00;;;23.05;56.42
39443;BME280;25147;52.142;9.960;2023-06-19T09:19:58;99922.91;;;22.81;57.72
39443;BME280;25147;52.142;9.960;2023-06-19T09:22:33;100003.91;;;23.28;57.47
39443;BME280;25147;52.142;9.960;2023-06-19T09:25:21;100189.13;;;24.59;57.89
39443;BME280;25147;52.142;9.960;2023-06-19T09:28:04;100184.03;;;24.67;57.25
39443;BME280;25147;52.142;9.960;2023-06-19T09:31:01;100196.91;;;24.73;56.52
39443;BME280;25147;52.142;9.960;2023-06-19T09:34:01;99985.06;;;23.54;56.70
39443;BME280;25147;52.142;9.960;2023-06-19T09:37:12;100100.16;;;24.33;56.92
39443;BME280;25147;52.142;9.960;2023-06-19T09:39:45;100053.81;;;23.98;57.79
39443;BME280;25147;52.142;9.960;2023-06-19T09:42:15;99930.50;;;23.45;56.88
39443;BME280;25147;52.142;9.960;2023-06-19T09:44:47;100186.78;;;25.11;56.99
39443;BME280;25147;52.142;9.960;2023-06-19T09:47:31;100205.56;;;25.22;56.66
39443;BME280;25147;52.142;9.960;2023-06-19T09:50:11;100140.16;;;25.02;56.64
39443;BME280;25147;52.142;9.960;2023-06-19T09:52:43;100206.47;;;25.43;55.98
39443;BME280;25147;52.142;9.960;2023-06-19T09:55:11;100042.75;;;24.59;56.08
39443;BME280;25147;52.142;9.960;2023-06-19T09:57:46;100112.63;;;25.11;55.21
39443;BME280;25147;52.142;9.960;2023-06-19T10:00:28;100059.59;;;24.82;54.53
39443;BME280;25147;52.142;9.960;2023-06-19T10:02:58;100065.19;;;24.91;55.19
39443;BME280;25147;52.142;9.960;2023-06-19T10:05:29;100218.88;;;25.88;55.06
39443;BME280;25147;52.142;9.960;2023-06-19T10:08:01;100124.94;;;25.46;54.83
39443;BME280;25147;52.142;9.960;2023-06-19T10:10:32;99998.59;;;24.65;55.25
39443;BME280;25147;52.142;9.960;2023-06-19T10:13:47;99930.25;;;24.38;55.15
39443;BME280;25147;52.142;9.960;2023-06-19T10:16:21;100056.97;;;25.26;54.98
39443;BME280;25147;52.142;9.960;2023-06-19T10:18:49;100138.34;;;25.78;55.11
39443;BME280;25147;52.142;9.960;2023-06-19T10:21:16;100066.84;;;25.47;55.01
39443;BME280;25147;52.142;9.960;2023-06-19T10:23:53;100228.56;;;26.33;55.09
39443;BME280;25147;52.142;9.960;2023-06-19T10:26:30;100135.25;;;25.94;55.21
39443;BME280;25147;52.142;9.960;2023-06-19T10:28:57;100063.13;;;25.59;54.39
39443;BME280;25147;52.142;9.960;2023-06-19T10:31:27;100233.06;;;26.53;53.78
39443;BME280;25147;52.142;9.960;2023-06-19T10:33:55;100006.16;;;25.25;53.99
39443;BME280;25147;52.142;9.960;2023-06-19T10:36:24;100218.31;;;26.59;54.37
39443;BME280;25147;52.142;9.960;2023-06-19T10:39:21;100127.06;;;25.96;53.87
39443;BME280;25147;52.142;9.960;2023-06-19T10:41:50;100074.22;;;25.54;53.63
39443;BME280;25147;52.142;9.960;2023-06-19T10:44:25;100105.31;;;25.57;53.62
39443;BME280;25147;52.142;9.960;2023-06-19T10:46:58;100219.84;;;26.19;53.96
39443;BME280;25147;52.142;9.960;2023-06-19T10:49:35;100185.84;;;25.88;54.29
39443;BME280;25147;52.142;9.960;2023-06-19T10:52:08;100056.22;;;25.13;54.50
39443;BME280;25147;52.142;9.960;2023-06-19T10:57:59;100008.78;;;24.71;54.59
39443;BME280;25147;52.142;9.960;2023-06-19T11:00:54;99940.94;;;24.38;54.59
39443;BME280;25147;52.142;9.960;2023-06-19T11:03:37;100097.00;;;25.28;54.75
39443;BME280;25147;52.142;9.960;2023-06-19T11:06:04;100130.28;;;25.57;55.13
39443;BME280;25147;52.142;9.960;2023-06-19T11:08:34;100181.41;;;25.77;55.53
39443;BME280;25147;52.142;9.960;2023-06-19T11:11:01;99924.25;;;24.46;55.51
39443;BME280;25147;52.142;9.960;2023-06-19T11:13:30;100088.66;;;25.42;54.81
39443;BME280;25147;52.142;9.960;2023-06-19T11:16:00;100198.91;;;26.34;53.70
39443;BME280;25147;52.142;9.960;2023-06-19T11:18:27;99965.34;;;25.00;53.68
39443;BME280;25147;52.142;9.960;2023-06-19T11:20:54;100026.66;;;25.47;53.01
39443;BME280;25147;52.142;9.960;2023-06-19T11:23:47;99962.47;;;25.13;52.11
39443;BME280;25147;52.142;9.960;2023-06-19T11:26:17;100073.84;;;25.80;51.72
39443;BME280;25147;52.142;9.960;2023-06-19T11:28:50;100069.47;;;26.00;50.92
39443;BME280;25147;52.142;9.960;2023-06-19T11:31:25;100112.03;;;26.35;51.17
39443;BME280;25147;52.142;9.960;2023-06-19T11:33:57;100134.72;;;26.52;49.56
39443;BME280;25147;52.142;9.960;2023-06-19T11:36:52;100225.56;;;26.99;50.87
39443;BME280;25147;52.142;9.960;2023-06-19T11:39:21;100226.41;;;26.99;50.40
39443;BME280;25147;52.142;9.960;2023-06-19T11:42:47;100141.72;;;26.43;51.42
39443;BME280;25147;52.142;9.960;2023-06-19T11:45:16;100001.47;;;25.59;52.49
39443;BME280;25147;52.142;9.960;2023-06-19T11:48:11;100089.41;;;26.07;52.25
39443;BME280;25147;52.142;9.960;2023-06-19T11:50:59;100024.34;;;25.63;51.41
39443;BME280;25147;52.142;9.960;2023-06-19T11:57:45;100009.69;;;25.67;51.94
39443;BME280;25147;52.142;9.960;2023-06-19T12:04:25;100084.69;;;26.20;50.95
39443;BME280;25147;52.142;9.960;2023-06-19T12:07:26;100221.69;;;26.92;50.86
39443;BME280;25147;52.142;9.960;2023-06-19T12:10:11;100001.81;;;25.45;51.23
39443;BME280;25147;52.142;9.960;2023-06-19T12:13:07;100076.09;;;25.96;51.54
39443;BME280;25147;52.142;9.960;2023-06-19T12:18:11;100006.84;;;25.59;51.25
39443;BME280;25147;52.142;9.960;2023-06-19T12:27:52;100092.56;;;26.12;51.16
39443;BME280;25147;52.142;9.960;2023-06-19T12:30:28;100235.72;;;26.95;50.97
39443;BME280;25147;52.142;9.960;2023-06-19T12:32:55;100073.84;;;26.01;51.17
39443;BME280;25147;52.142;9.960;2023-06-19T12:35:25;100238.78;;;26.91;51.14
39443;BME280;25147;52.142;9.960;2023-06-19T12:38:07;100084.47;;;26.02;51.75
39443;BME280;25147;52.142;9.960;2023-06-19T12:40:43;100217.84;;;26.85;51.46
39443;BME280;25147;52.142;9.960;2023-06-19T12:46:55;100130.28;;;26.41;51.15
39443;BME280;25147;52.142;9.960;2023-06-19T12:53:43;100217.34;;;27.00;50.57
39443;BME280;25147;52.142;9.960;2023-06-19T12:56:44;100083.13;;;26.18;50.44
39443;BME280;25147;52.142;9.960;2023-06-19T12:59:14;100028.06;;;25.72;51.14
39443;BME280;25147;52.142;9.960;2023-06-19T13:02:00;99997.41;;;25.65;50.89
39443;BME280;25147;52.142;9.960;2023-06-19T13:07:46;100221.34;;;27.06;50.57
39443;BME280;25147;52.142;9.960;2023-06-19T13:10:17;100133.47;;;26.56;50.66
39443;BME280;25147;52.142;9.960;2023-06-19T13:12:51;100227.00;;;27.03;49.43
39443;BME280;25147;52.142;9.960;2023-06-19T13:15:19;100146.78;;;26.37;49.77
39443;BME280;25147;52.142;9.960;2023-06-19T13:20:55;100219.19;;;27.00;50.55
39443;BME280;25147;52.142;9.960;2023-06-19T13:23:59;100220.50;;;27.06;50.36
39443;BME280;25147;52.142;9.960;2023-06-19T13:26:54;100148.06;;;26.64;49.76
39443;BME280;25147;52.142;9.960;2023-06-19T13:30:06;100002.50;;;25.68;50.07
39443;BME280;25147;52.142;9.960;2023-06-19T13:33:02;100084.63;;;26.32;49.38
39443;BME280;25147;52.142;9.960;2023-06-19T13:36:13;99983.94;;;25.55;48.55
39443;BME280;25147;52.142;9.960;2023-06-19T13:39:26;100158.09;;;26.61;49.56
39443;BME280;25147;52.142;9.960;2023-06-19T13:41:59;100206.84;;;26.88;49.84
39443;BME280;25147;52.142;9.960;2023-06-19T13:44:50;100239.84;;;26.99;49.20
39443;BME280;25147;52.142;9.960;2023-06-19T13:47:49;100257.28;;;26.84;49.48
39443;BME280;25147;52.142;9.960;2023-06-19T13:51:00;99992.06;;;25.22;49.84
39443;BME280;25147;52.142;9.960;2023-06-19T13:57:23;100103.16;;;25.93;50.01
39443;BME280;25147;52.142;9.960;2023-06-19T14:02:34;100101.59;;;25.90;49.83
39443;BME280;25147;52.142;9.960;2023-06-19T14:07:46;99987.50;;;25.02;50.53
39443;BME280;25147;52.142;9.960;2023-06-19T14:10:15;100036.97;;;25.30;50.56
39443;BME280;25147;52.142;9.960;2023-06-19T14:13:11;100262.69;;;26.42;51.45
39443;BME280;25147;52.142;9.960;2023-06-19T14:15:59;100062.53;;;25.34;51.35
39443;BME280;25147;52.142;9.960;2023-06-19T14:19:02;100016.63;;;25.28;51.79
39443;BME280;25147;52.142;9.960;2023-06-19T14:21:43;100031.28;;;25.45;50.92
39443;BME280;25147;52.142;9.960;2023-06-19T14:24:17;100089.50;;;25.96;51.55
39443;BME280;25147;52.142;9.960;2023-06-19T14:29:25;100221.53;;;26.84;51.38
39443;BME280;25147;52.142;9.960;2023-06-19T14:39:36;100157.75;;;26.55;49.62
39443;BME280;25147;52.142;9.960;2023-06-19T14:50:04;100253.31;;;27.09;49.48
39443;BME280;25147;52.142;9.960;2023-06-19T14:52:46;100113.69;;;26.27;49.08
39443;BME280;25147;52.142;9.960;2023-06-19T14:59:15;100039.31;;;25.45;48.66
39443;BME280;25147;52.142;9.960;2023-06-19T15:01:50;100025.31;;;25.41;48.66
39443;BME280;25147;52.142;9.960;2023-06-19T15:04:51;100250.63;;;26.78;49.00
39443;BME280;25147;52.142;9.960;2023-06-19T15:07:18;100111.38;;;25.91;49.25
39443;BME280;25147;52.142;9.960;2023-06-19T15:10:12;100182.69;;;26.36;49.63
39443;BME280;25147;52.142;9.960;2023-06-19T15:13:10;100248.66;;;26.80;48.94
39443;BME280;25147;52.142;9.960;2023-06-19T15:15:43;100227.56;;;26.76;49.11
39443;BME280;25147;52.142;9.960;2023-06-19T15:21:40;100061.16;;;26.65;47.33
39443;BME280;25147;52.142;9.960;2023-06-19T15:24:34;100015.94;;;26.70;46.34
39443;BME280;25147;52.142;9.960;2023-06-19T15:27:32;100044.66;;;26.89;46.39
39443;BME280;25147;52.142;9.960;2023-06-19T15:30:14;100050.34;;;26.95;46.00